sensor_id;sensor_type;location;lat;lon;timestamp;P1;durP1;ratioP1;P2;durP2;ratioP2
11066;SDS011;29763;50.904;5.530;2022-10-01T00:02:00;7.18;;;6.40;;
11066;SDS011;29763;50.904;5.530;2022-10-01T00:04:28;6.85;;;6.20;;
11066;SDS011;29763;50.904;5.530;2022-10-01T00:06:54;6.95;;;6.25;;
11066;SDS011;29763;50.904;5.530;2022-10-01T00:09:23;7.20;;;6.50;;
11066;SDS011;29763;50.904;5.530;2022-10-01T00:11:49;7.30;;;6.43;;
11066;SDS011;29763;50.904;5.530;2022-10-01T00:14:17;6.75;;;6.15;;
11066;SDS011;29763;50.904;5.530;2022-10-01T00:16:43;7.63;;;6.93;;
11066;SDS011;29763;50.904;5.530;2022-10-01T00:19:10;9.00;;;6.28;;
11066;SDS011;29763;50.904;5.530;2022-10-01T00:21:37;6.82;;;6.30;;
11066;SDS011;29763;50.904;5.530;2022-10-01T00:24:03;7.60;;;6.60;;
11066;SDS011;29763;50.904;5.530;2022-10-01T00:26:31;8.18;;;6.35;;
11066;SDS011;29763;50.904;5.530;2022-10-01T00:29:03;6.72;;;6.10;;
11066;SDS011;29763;50.904;5.530;2022-10-01T00:31:31;7.32;;;6.57;;
11066;SDS011;29763;50.904;5.530;2022-10-01T00:33:57;8.20;;;6.68;;
11066;SDS011;29763;50.904;5.530;2022-10-01T00:36:24;7.37;;;6.67;;
11066;SDS011;29763;50.904;5.530;2022-10-01T00:38:50;6.50;;;5.77;;
11066;SDS011;29763;50.904;5.530;2022-10-01T00:41:16;6.40;;;5.82;;
11066;SDS011;29763;50.904;5.530;2022-10-01T00:43:44;9.30;;;6.50;;
11066;SDS011;29763;50.904;5.530;2022-10-01T00:46:21;7.05;;;6.35;;
11066;SDS011;29763;50.904;5.530;2022-10-01T00:51:55;7.20;;;6.50;;
11066;SDS011;29763;50.904;5.530;2022-10-01T00:54:34;6.25;;;5.65;;
11066;SDS011;29763;50.904;5.530;2022-10-01T00:57:01;7.03;;;6.10;;
11066;SDS011;29763;50.904;5.530;2022-10-01T00:59:30;6.40;;;5.75;;
11066;SDS011;29763;50.904;5.530;2022-10-01T01:01:56;7.17;;;6.43;;
11066;SDS011;29763;50.904;5.530;2022-10-01T01:04:23;7.10;;;6.40;;
11066;SDS011;29763;50.904;5.530;2022-10-01T01:06:53;6.82;;;6.20;;
11066;SDS011;29763;50.904;5.530;2022-10-01T01:09:25;7.07;;;6.07;;
11066;SDS011;29763;50.904;5.530;2022-10-01T01:25:46;6.10;;;5.53;;
11066;SDS011;29763;50.904;5.530;2022-10-01T01:28:20;6.13;;;5.53;;
11066;SDS011;29763;50.904;5.530;2022-10-01T01:30:56;5.28;;;4.80;;
11066;SDS011;29763;50.904;5.530;2022-10-01T01:33:32;5.40;;;5.00;;
11066;SDS011;29763;50.904;5.530;2022-10-01T01:36:05;6.13;;;5.37;;
11066;SDS011;29763;50.904;5.530;2022-10-01T01:38:39;5.18;;;4.78;;
11066;SDS011;29763;50.904;5.530;2022-10-01T01:41:19;5.82;;;4.90;;
11066;SDS011;29763;50.904;5.530;2022-10-01T01:43:49;5.45;;;4.70;;
11066;SDS011;29763;50.904;5.530;2022-10-01T01:46:17;4.95;;;4.55;;
11066;SDS011;29763;50.904;5.530;2022-10-01T01:48:45;5.47;;;4.80;;
11066;SDS011;29763;50.904;5.530;2022-10-01T01:53:50;4.50;;;4.10;;
11066;SDS011;29763;50.904;5.530;2022-10-01T01:56:19;5.10;;;4.60;;
11066;SDS011;29763;50.904;5.530;2022-10-01T01:58:50;5.17;;;4.03;;
11066;SDS011;29763;50.904;5.530;2022-10-01T02:01:39;4.53;;;4.00;;
11066;SDS011;29763;50.904;5.530;2022-10-01T02:04:09;4.20;;;3.83;;
11066;SDS011;29763;50.904;5.530;2022-10-01T02:17:57;3.90;;;3.33;;
11066;SDS011;29763;50.904;5.530;2022-10-01T02:20:44;4.13;;;3.72;;
11066;SDS011;29763;50.904;5.530;2022-10-01T02:23:16;3.80;;;3.00;;
11066;SDS011;29763;50.904;5.530;2022-10-01T02:25:52;3.13;;;2.80;;
11066;SDS011;29763;50.904;5.530;2022-10-01T02:28:22;3.75;;;2.72;;
11066;SDS011;29763;50.904;5.530;2022-10-01T02:30:51;3.55;;;2.40;;
11066;SDS011;29763;50.904;5.530;2022-10-01T02:33:26;2.53;;;2.33;;
11066;SDS011;29763;50.904;5.530;2022-10-01T02:35:55;2.65;;;2.20;;
11066;SDS011;29763;50.904;5.530;2022-10-01T02:38:24;2.50;;;2.30;;
11066;SDS011;29763;50.904;5.530;2022-10-01T02:40:52;2.27;;;2.17;;
11066;SDS011;29763;50.904;5.530;2022-10-01T02:43:22;2.47;;;2.28;;
11066;SDS011;29763;50.904;5.530;2022-10-01T02:45:59;2.45;;;2.22;;
11066;SDS011;29763;50.904;5.530;2022-10-01T02:48:35;2.47;;;2.00;;
11066;SDS011;29763;50.904;5.530;2022-10-01T02:51:06;2.57;;;1.83;;
11066;SDS011;29763;50.904;5.530;2022-10-01T02:53:53;1.77;;;1.67;;
11066;SDS011;29763;50.904;5.530;2022-10-01T02:56:23;1.70;;;1.60;;
11066;SDS011;29763;50.904;5.530;2022-10-01T02:59:09;2.03;;;1.73;;
11066;SDS011;29763;50.904;5.530;2022-10-01T03:01:35;2.45;;;1.73;;
11066;SDS011;29763;50.904;5.530;2022-10-01T03:04:01;1.70;;;1.60;;
11066;SDS011;29763;50.904;5.530;2022-10-01T03:06:33;1.50;;;1.40;;
11066;SDS011;29763;50.904;5.530;2022-10-01T03:08:59;1.40;;;1.30;;
11066;SDS011;29763;50.904;5.530;2022-10-01T03:11:25;1.40;;;1.30;;
11066;SDS011;29763;50.904;5.530;2022-10-01T03:13:51;1.57;;;1.37;;
11066;SDS011;29763;50.904;5.530;2022-10-01T03:16:18;3.20;;;1.40;;
11066;SDS011;29763;50.904;5.530;2022-10-01T03:18:43;1.73;;;1.30;;
11066;SDS011;29763;50.904;5.530;2022-10-01T03:21:09;2.07;;;1.40;;
11066;SDS011;29763;50.904;5.530;2022-10-01T03:23:35;1.10;;;1.00;;
11066;SDS011;29763;50.904;5.530;2022-10-01T03:26:01;1.10;;;1.10;;
11066;SDS011;29763;50.904;5.530;2022-10-01T03:28:26;0.90;;;0.90;;
11066;SDS011;29763;50.904;5.530;2022-10-01T03:31:02;0.97;;;0.93;;
11066;SDS011;29763;50.904;5.530;2022-10-01T03:33:29;1.23;;;1.00;;
11066;SDS011;29763;50.904;5.530;2022-10-01T03:35:57;1.07;;;1.00;;
11066;SDS011;29763;50.904;5.530;2022-10-01T03:38:23;0.80;;;0.80;;
11066;SDS011;29763;50.904;5.530;2022-10-01T03:40:49;1.03;;;0.90;;
11066;SDS011;29763;50.904;5.530;2022-10-01T03:43:15;1.33;;;0.88;;
11066;SDS011;29763;50.904;5.530;2022-10-01T03:45:40;0.73;;;0.73;;
11066;SDS011;29763;50.904;5.530;2022-10-01T03:48:06;1.13;;;1.00;;
11066;SDS011;29763;50.904;5.530;2022-10-01T03:50:32;0.75;;;0.75;;
11066;SDS011;29763;50.904;5.530;2022-10-01T03:52:57;1.20;;;0.90;;
11066;SDS011;29763;50.904;5.530;2022-10-01T03:55:24;1.10;;;0.73;;
11066;SDS011;29763;50.904;5.530;2022-10-01T03:57:49;1.48;;;1.00;;
11066;SDS011;29763;50.904;5.530;2022-10-01T04:00:16;1.50;;;1.00;;
11066;SDS011;29763;50.904;5.530;2022-10-01T04:02:42;1.57;;;0.73;;
11066;SDS011;29763;50.904;5.530;2022-10-01T04:05:08;1.50;;;0.90;;
11066;SDS011;29763;50.904;5.530;2022-10-01T04:07:37;1.08;;;0.73;;
11066;SDS011;29763;50.904;5.530;2022-10-01T04:10:06;0.75;;;0.75;;
11066;SDS011;29763;50.904;5.530;2022-10-01T04:12:32;0.90;;;0.90;;
11066;SDS011;29763;50.904;5.530;2022-10-01T04:14:58;1.45;;;0.80;;
11066;SDS011;29763;50.904;5.530;2022-10-01T04:17:24;0.70;;;0.70;;
11066;SDS011;29763;50.904;5.530;2022-10-01T04:19:50;2.05;;;0.90;;
11066;SDS011;29763;50.904;5.530;2022-10-01T04:22:16;0.73;;;0.70;;
11066;SDS011;29763;50.904;5.530;2022-10-01T04:24:42;0.77;;;0.77;;
11066;SDS011;29763;50.904;5.530;2022-10-01T04:27:08;1.20;;;0.82;;
11066;SDS011;29763;50.904;5.530;2022-10-01T04:29:33;0.80;;;0.80;;
11066;SDS011;29763;50.904;5.530;2022-10-01T04:31:59;0.90;;;0.90;;
11066;SDS011;29763;50.904;5.530;2022-10-01T04:34:27;0.93;;;0.93;;
11066;SDS011;29763;50.904;5.530;2022-10-01T04:37:12;0.82;;;0.82;;
11066;SDS011;29763;50.904;5.530;2022-10-01T04:39:38;1.00;;;0.60;;
11066;SDS011;29763;50.904;5.530;2022-10-01T04:42:04;0.63;;;0.38;;
11066;SDS011;29763;50.904;5.530;2022-10-01T04:44:29;0.60;;;0.60;;
11066;SDS011;29763;50.904;5.530;2022-10-01T04:46:55;0.60;;;0.60;;
11066;SDS011;29763;50.904;5.530;2022-10-01T04:49:21;0.70;;;0.70;;
11066;SDS011;29763;50.904;5.530;2022-10-01T04:51:47;1.65;;;0.50;;
11066;SDS011;29763;50.904;5.530;2022-10-01T04:54:13;0.60;;;0.60;;
11066;SDS011;29763;50.904;5.530;2022-10-01T04:56:38;1.05;;;0.75;;
11066;SDS011;29763;50.904;5.530;2022-10-01T04:59:04;1.02;;;0.52;;
11066;SDS011;29763;50.904;5.530;2022-10-01T05:01:30;1.35;;;0.50;;
11066;SDS011;29763;50.904;5.530;2022-10-01T05:03:56;1.23;;;0.70;;
11066;SDS011;29763;50.904;5.530;2022-10-01T05:06:22;0.70;;;0.70;;
11066;SDS011;29763;50.904;5.530;2022-10-01T05:08:48;1.80;;;0.63;;
11066;SDS011;29763;50.904;5.530;2022-10-01T05:11:16;1.48;;;0.90;;
11066;SDS011;29763;50.904;5.530;2022-10-01T05:13:42;0.60;;;0.60;;
11066;SDS011;29763;50.904;5.530;2022-10-01T05:16:08;1.90;;;0.88;;
11066;SDS011;29763;50.904;5.530;2022-10-01T05:18:34;1.33;;;0.60;;
11066;SDS011;29763;50.904;5.530;2022-10-01T05:21:03;2.08;;;0.85;;
11066;SDS011;29763;50.904;5.530;2022-10-01T05:23:30;1.02;;;0.60;;
11066;SDS011;29763;50.904;5.530;2022-10-01T05:25:56;0.75;;;0.68;;
11066;SDS011;29763;50.904;5.530;2022-10-01T05:28:22;1.92;;;0.65;;
11066;SDS011;29763;50.904;5.530;2022-10-01T05:30:48;3.13;;;1.02;;
11066;SDS011;29763;50.904;5.530;2022-10-01T05:33:15;1.73;;;0.88;;
11066;SDS011;29763;50.904;5.530;2022-10-01T05:35:41;1.48;;;0.90;;
11066;SDS011;29763;50.904;5.530;2022-10-01T05:38:07;2.25;;;1.20;;
11066;SDS011;29763;50.904;5.530;2022-10-01T05:40:32;1.48;;;1.08;;
11066;SDS011;29763;50.904;5.530;2022-10-01T05:42:58;1.80;;;1.00;;
11066;SDS011;29763;50.904;5.530;2022-10-01T05:45:28;2.20;;;0.93;;
11066;SDS011;29763;50.904;5.530;2022-10-01T05:47:56;2.15;;;0.80;;
11066;SDS011;29763;50.904;5.530;2022-10-01T05:50:26;0.60;;;0.60;;
11066;SDS011;29763;50.904;5.530;2022-10-01T05:52:54;1.98;;;0.80;;
11066;SDS011;29763;50.904;5.530;2022-10-01T05:55:20;1.58;;;0.68;;
11066;SDS011;29763;50.904;5.530;2022-10-01T05:57:56;0.60;;;0.60;;
11066;SDS011;29763;50.904;5.530;2022-10-01T06:00:23;0.93;;;0.70;;
11066;SDS011;29763;50.904;5.530;2022-10-01T06:02:52;1.95;;;0.82;;
11066;SDS011;29763;50.904;5.530;2022-10-01T06:05:18;1.35;;;0.80;;
11066;SDS011;29763;50.904;5.530;2022-10-01T06:07:44;1.67;;;0.77;;
11066;SDS011;29763;50.904;5.530;2022-10-01T06:10:10;1.00;;;0.82;;
11066;SDS011;29763;50.904;5.530;2022-10-01T06:12:36;1.67;;;0.98;;
11066;SDS011;29763;50.904;5.530;2022-10-01T06:15:02;1.25;;;0.80;;
11066;SDS011;29763;50.904;5.530;2022-10-01T06:17:28;2.38;;;0.90;;
11066;SDS011;29763;50.904;5.530;2022-10-01T06:19:53;2.08;;;0.95;;
11066;SDS011;29763;50.904;5.530;2022-10-01T06:22:19;2.22;;;1.30;;
11066;SDS011;29763;50.904;5.530;2022-10-01T06:24:45;0.82;;;0.73;;
11066;SDS011;29763;50.904;5.530;2022-10-01T06:27:11;1.88;;;1.08;;
11066;SDS011;29763;50.904;5.530;2022-10-01T06:29:37;0.80;;;0.80;;
11066;SDS011;29763;50.904;5.530;2022-10-01T06:32:05;0.90;;;0.80;;
11066;SDS011;29763;50.904;5.530;2022-10-01T06:34:32;1.52;;;0.80;;
11066;SDS011;29763;50.904;5.530;2022-10-01T06:36:58;1.17;;;0.85;;
11066;SDS011;29763;50.904;5.530;2022-10-01T06:39:24;1.95;;;0.80;;
11066;SDS011;29763;50.904;5.530;2022-10-01T06:41:49;1.85;;;0.80;;
11066;SDS011;29763;50.904;5.530;2022-10-01T06:44:18;1.10;;;0.77;;
11066;SDS011;29763;50.904;5.530;2022-10-01T06:46:44;0.70;;;0.70;;
11066;SDS011;29763;50.904;5.530;2022-10-01T06:49:10;0.43;;;0.43;;
11066;SDS011;29763;50.904;5.530;2022-10-01T06:51:37;1.30;;;0.63;;
11066;SDS011;29763;50.904;5.530;2022-10-01T06:54:22;1.58;;;0.98;;
11066;SDS011;29763;50.904;5.530;2022-10-01T06:56:50;1.73;;;0.95;;
11066;SDS011;29763;50.904;5.530;2022-10-01T06:59:15;1.33;;;0.80;;
11066;SDS011;29763;50.904;5.530;2022-10-01T07:01:44;1.23;;;1.00;;
11066;SDS011;29763;50.904;5.530;2022-10-01T07:04:12;2.13;;;1.42;;
11066;SDS011;29763;50.904;5.530;2022-10-01T07:06:38;4.10;;;1.40;;
11066;SDS011;29763;50.904;5.530;2022-10-01T07:09:04;4.07;;;1.13;;
11066;SDS011;29763;50.904;5.530;2022-10-01T07:11:30;1.77;;;1.20;;
11066;SDS011;29763;50.904;5.530;2022-10-01T07:13:58;1.63;;;1.10;;
11066;SDS011;29763;50.904;5.530;2022-10-01T07:16:25;6.05;;;1.10;;
11066;SDS011;29763;50.904;5.530;2022-10-01T07:18:51;1.92;;;1.00;;
11066;SDS011;29763;50.904;5.530;2022-10-01T07:21:19;1.35;;;0.95;;
11066;SDS011;29763;50.904;5.530;2022-10-01T07:23:46;3.63;;;1.00;;
11066;SDS011;29763;50.904;5.530;2022-10-01T07:26:12;1.40;;;1.30;;
11066;SDS011;29763;50.904;5.530;2022-10-01T07:28:41;1.13;;;1.02;;
11066;SDS011;29763;50.904;5.530;2022-10-01T07:31:10;3.00;;;1.38;;
11066;SDS011;29763;50.904;5.530;2022-10-01T07:33:37;3.55;;;1.20;;
11066;SDS011;29763;50.904;5.530;2022-10-01T07:36:04;2.45;;;1.50;;
11066;SDS011;29763;50.904;5.530;2022-10-01T07:38:38;1.75;;;1.30;;
11066;SDS011;29763;50.904;5.530;2022-10-01T07:41:04;3.83;;;1.10;;
11066;SDS011;29763;50.904;5.530;2022-10-01T07:43:31;3.33;;;1.30;;
11066;SDS011;29763;50.904;5.530;2022-10-01T07:45:58;7.47;;;1.50;;
11066;SDS011;29763;50.904;5.530;2022-10-01T07:48:26;3.60;;;1.80;;
11066;SDS011;29763;50.904;5.530;2022-10-01T07:50:51;6.03;;;1.85;;
11066;SDS011;29763;50.904;5.530;2022-10-01T07:53:17;2.97;;;1.70;;
11066;SDS011;29763;50.904;5.530;2022-10-01T07:55:44;2.30;;;1.70;;
11066;SDS011;29763;50.904;5.530;2022-10-01T07:58:09;3.38;;;1.80;;
11066;SDS011;29763;50.904;5.530;2022-10-01T08:00:36;4.32;;;2.50;;
11066;SDS011;29763;50.904;5.530;2022-10-01T08:03:03;3.92;;;2.10;;
11066;SDS011;29763;50.904;5.530;2022-10-01T08:05:30;2.50;;;2.08;;
11066;SDS011;29763;50.904;5.530;2022-10-01T08:07:59;4.13;;;2.20;;
11066;SDS011;29763;50.904;5.530;2022-10-01T08:10:27;2.45;;;1.83;;
11066;SDS011;29763;50.904;5.530;2022-10-01T08:13:00;3.88;;;2.40;;
11066;SDS011;29763;50.904;5.530;2022-10-01T08:15:32;3.28;;;2.30;;
11066;SDS011;29763;50.904;5.530;2022-10-01T08:18:00;2.85;;;2.35;;
11066;SDS011;29763;50.904;5.530;2022-10-01T08:20:27;3.90;;;2.40;;
11066;SDS011;29763;50.904;5.530;2022-10-01T08:22:53;5.63;;;2.50;;
11066;SDS011;29763;50.904;5.530;2022-10-01T08:25:18;3.60;;;2.40;;
11066;SDS011;29763;50.904;5.530;2022-10-01T08:27:44;4.93;;;2.80;;
11066;SDS011;29763;50.904;5.530;2022-10-01T08:30:12;5.88;;;2.53;;
11066;SDS011;29763;50.904;5.530;2022-10-01T08:32:40;5.55;;;2.95;;
11066;SDS011;29763;50.904;5.530;2022-10-01T08:35:06;5.28;;;3.28;;
11066;SDS011;29763;50.904;5.530;2022-10-01T08:37:32;7.18;;;3.65;;
11066;SDS011;29763;50.904;5.530;2022-10-01T08:40:00;5.50;;;3.38;;
11066;SDS011;29763;50.904;5.530;2022-10-01T08:44:59;4.63;;;3.60;;
11066;SDS011;29763;50.904;5.530;2022-10-01T08:50:12;8.10;;;4.28;;
11066;SDS011;29763;50.904;5.530;2022-10-01T08:52:59;5.15;;;4.13;;
11066;SDS011;29763;50.904;5.530;2022-10-01T08:55:31;6.78;;;3.90;;
11066;SDS011;29763;50.904;5.530;2022-10-01T08:58:02;9.82;;;4.13;;
11066;SDS011;29763;50.904;5.530;2022-10-01T09:00:37;7.22;;;4.13;;
11066;SDS011;29763;50.904;5.530;2022-10-01T09:03:05;8.50;;;3.95;;
11066;SDS011;29763;50.904;5.530;2022-10-01T09:08:19;9.75;;;3.85;;
11066;SDS011;29763;50.904;5.530;2022-10-01T09:11:13;9.60;;;3.80;;
11066;SDS011;29763;50.904;5.530;2022-10-01T09:24:44;6.55;;;3.60;;
11066;SDS011;29763;50.904;5.530;2022-10-01T09:27:25;5.93;;;3.42;;
11066;SDS011;29763;50.904;5.530;2022-10-01T09:29:56;8.07;;;4.20;;
11066;SDS011;29763;50.904;5.530;2022-10-01T09:32:29;8.32;;;4.13;;
11066;SDS011;29763;50.904;5.530;2022-10-01T09:35:09;10.27;;;4.55;;
11066;SDS011;29763;50.904;5.530;2022-10-01T09:40:33;6.60;;;4.22;;
11066;SDS011;29763;50.904;5.530;2022-10-01T09:43:02;7.90;;;4.50;;
11066;SDS011;29763;50.904;5.530;2022-10-01T09:45:32;10.20;;;4.35;;
11066;SDS011;29763;50.904;5.530;2022-10-01T09:48:48;8.57;;;4.07;;
11066;SDS011;29763;50.904;5.530;2022-10-01T09:50:46;6.90;;;4.07;;
11066;SDS011;29763;50.904;5.530;2022-10-01T09:53:19;8.93;;;4.13;;
11066;SDS011;29763;50.904;5.530;2022-10-01T09:55:53;9.10;;;3.78;;
11066;SDS011;29763;50.904;5.530;2022-10-01T09:58:23;8.52;;;3.58;;
11066;SDS011;29763;50.904;5.530;2022-10-01T10:00:52;8.43;;;3.83;;
11066;SDS011;29763;50.904;5.530;2022-10-01T10:03:23;8.77;;;3.88;;
11066;SDS011;29763;50.904;5.530;2022-10-01T10:05:55;9.82;;;4.15;;
11066;SDS011;29763;50.904;5.530;2022-10-01T10:16:45;10.07;;;4.35;;
11066;SDS011;29763;50.904;5.530;2022-10-01T10:19:05;11.60;;;4.55;;
11066;SDS011;29763;50.904;5.530;2022-10-01T10:21:48;8.80;;;4.20;;
11066;SDS011;29763;50.904;5.530;2022-10-01T10:24:25;9.45;;;4.45;;
11066;SDS011;29763;50.904;5.530;2022-10-01T10:27:02;12.57;;;4.55;;
11066;SDS011;29763;50.904;5.530;2022-10-01T10:29:32;10.75;;;4.22;;
11066;SDS011;29763;50.904;5.530;2022-10-01T10:32:03;8.60;;;3.67;;
11066;SDS011;29763;50.904;5.530;2022-10-01T10:34:50;10.13;;;3.78;;
11066;SDS011;29763;50.904;5.530;2022-10-01T10:37:23;6.60;;;3.63;;
11066;SDS011;29763;50.904;5.530;2022-10-01T10:39:54;7.78;;;3.33;;
11066;SDS011;29763;50.904;5.530;2022-10-01T10:42:21;9.27;;;3.67;;
11066;SDS011;29763;50.904;5.530;2022-10-01T10:44:48;10.05;;;3.88;;
11066;SDS011;29763;50.904;5.530;2022-10-01T10:47:18;8.18;;;3.75;;
11066;SDS011;29763;50.904;5.530;2022-10-01T10:49:55;11.55;;;4.00;;
11066;SDS011;29763;50.904;5.530;2022-10-01T10:52:26;10.18;;;3.92;;
11066;SDS011;29763;50.904;5.530;2022-10-01T10:54:54;7.82;;;3.50;;
11066;SDS011;29763;50.904;5.530;2022-10-01T10:57:26;8.88;;;3.17;;
11066;SDS011;29763;50.904;5.530;2022-10-01T11:02:55;8.52;;;3.13;;
11066;SDS011;29763;50.904;5.530;2022-10-01T11:05:24;11.32;;;3.20;;
11066;SDS011;29763;50.904;5.530;2022-10-01T11:07:54;9.40;;;3.72;;
11066;SDS011;29763;50.904;5.530;2022-10-01T11:21:39;9.95;;;3.85;;
11066;SDS011;29763;50.904;5.530;2022-10-01T11:27:37;8.40;;;2.97;;
11066;SDS011;29763;50.904;5.530;2022-10-01T11:33:19;9.02;;;2.85;;
11066;SDS011;29763;50.904;5.530;2022-10-01T11:38:26;7.28;;;3.10;;
11066;SDS011;29763;50.904;5.530;2022-10-01T11:41:10;7.82;;;2.80;;
11066;SDS011;29763;50.904;5.530;2022-10-01T11:43:48;8.63;;;3.45;;
11066;SDS011;29763;50.904;5.530;2022-10-01T11:51:45;8.68;;;2.92;;
11066;SDS011;29763;50.904;5.530;2022-10-01T11:54:17;5.90;;;2.72;;
11066;SDS011;29763;50.904;5.530;2022-10-01T11:56:49;6.22;;;2.90;;
11066;SDS011;29763;50.904;5.530;2022-10-01T11:59:38;7.38;;;3.13;;
11066;SDS011;29763;50.904;5.530;2022-10-01T12:02:20;7.20;;;2.78;;
11066;SDS011;29763;50.904;5.530;2022-10-01T12:05:00;6.28;;;2.78;;
11066;SDS011;29763;50.904;5.530;2022-10-01T12:13:05;6.10;;;2.80;;
11066;SDS011;29763;50.904;5.530;2022-10-01T12:18:12;6.05;;;2.90;;
11066;SDS011;29763;50.904;5.530;2022-10-01T12:20:59;9.25;;;3.10;;
11066;SDS011;29763;50.904;5.530;2022-10-01T12:23:30;9.43;;;3.58;;
11066;SDS011;29763;50.904;5.530;2022-10-01T12:28:45;6.47;;;3.20;;
11066;SDS011;29763;50.904;5.530;2022-10-01T12:36:42;9.88;;;3.90;;
11066;SDS011;29763;50.904;5.530;2022-10-01T12:42:15;6.22;;;3.10;;
11066;SDS011;29763;50.904;5.530;2022-10-01T13:06:39;5.15;;;2.60;;
11066;SDS011;29763;50.904;5.530;2022-10-01T13:12:15;9.48;;;3.47;;
11066;SDS011;29763;50.904;5.530;2022-10-01T13:14:50;9.80;;;2.88;;
11066;SDS011;29763;50.904;5.530;2022-10-01T13:17:36;5.88;;;2.42;;
11066;SDS011;29763;50.904;5.530;2022-10-01T13:22:58;6.43;;;2.60;;
11066;SDS011;29763;50.904;5.530;2022-10-01T13:31:11;9.63;;;2.58;;
11066;SDS011;29763;50.904;5.530;2022-10-01T13:33:39;7.55;;;2.50;;
11066;SDS011;29763;50.904;5.530;2022-10-01T13:36:06;8.13;;;2.22;;
11066;SDS011;29763;50.904;5.530;2022-10-01T13:41:06;6.22;;;2.38;;
11066;SDS011;29763;50.904;5.530;2022-10-01T13:43:55;4.47;;;2.15;;
11066;SDS011;29763;50.904;5.530;2022-10-01T13:46:30;5.38;;;2.20;;
11066;SDS011;29763;50.904;5.530;2022-10-01T13:49:06;5.65;;;2.30;;
11066;SDS011;29763;50.904;5.530;2022-10-01T13:51:45;6.20;;;2.50;;
11066;SDS011;29763;50.904;5.530;2022-10-01T13:54:14;6.68;;;2.30;;
11066;SDS011;29763;50.904;5.530;2022-10-01T13:57:49;6.05;;;2.30;;
11066;SDS011;29763;50.904;5.530;2022-10-01T14:02:38;5.93;;;2.28;;
11066;SDS011;29763;50.904;5.530;2022-10-01T14:07:38;5.72;;;2.10;;
11066;SDS011;29763;50.904;5.530;2022-10-01T14:10:04;8.48;;;2.40;;
11066;SDS011;29763;50.904;5.530;2022-10-01T14:12:31;6.10;;;2.20;;
11066;SDS011;29763;50.904;5.530;2022-10-01T14:15:19;6.38;;;2.35;;
11066;SDS011;29763;50.904;5.530;2022-10-01T14:18:16;6.78;;;2.20;;
11066;SDS011;29763;50.904;5.530;2022-10-01T14:26:13;6.13;;;1.83;;
11066;SDS011;29763;50.904;5.530;2022-10-01T14:28:58;5.40;;;2.25;;
11066;SDS011;29763;50.904;5.530;2022-10-01T14:36:59;8.02;;;2.17;;
11066;SDS011;29763;50.904;5.530;2022-10-01T14:39:26;7.13;;;2.60;;
11066;SDS011;29763;50.904;5.530;2022-10-01T14:41:54;5.63;;;2.28;;
11066;SDS011;29763;50.904;5.530;2022-10-01T14:44:22;7.70;;;2.50;;
11066;SDS011;29763;50.904;5.530;2022-10-01T14:46:56;7.00;;;1.85;;
11066;SDS011;29763;50.904;5.530;2022-10-01T14:54:30;5.78;;;2.20;;
11066;SDS011;29763;50.904;5.530;2022-10-01T14:57:10;7.22;;;2.10;;
11066;SDS011;29763;50.904;5.530;2022-10-01T14:59:41;5.60;;;1.85;;
11066;SDS011;29763;50.904;5.530;2022-10-01T15:02:18;5.15;;;2.10;;
11066;SDS011;29763;50.904;5.530;2022-10-01T15:04:46;6.20;;;2.40;;
11066;SDS011;29763;50.904;5.530;2022-10-01T15:07:14;7.97;;;2.28;;
11066;SDS011;29763;50.904;5.530;2022-10-01T15:09:41;10.15;;;2.50;;
11066;SDS011;29763;50.904;5.530;2022-10-01T15:12:08;6.85;;;2.30;;
11066;SDS011;29763;50.904;5.530;2022-10-01T15:14:37;6.65;;;2.40;;
11066;SDS011;29763;50.904;5.530;2022-10-01T15:17:04;5.10;;;2.10;;
11066;SDS011;29763;50.904;5.530;2022-10-01T15:19:43;5.80;;;2.03;;
11066;SDS011;29763;50.904;5.530;2022-10-01T15:22:11;4.95;;;1.90;;
11066;SDS011;29763;50.904;5.530;2022-10-01T15:24:42;9.25;;;2.65;;
11066;SDS011;29763;50.904;5.530;2022-10-01T15:27:14;7.85;;;2.60;;
11066;SDS011;29763;50.904;5.530;2022-10-01T15:29:43;6.03;;;2.30;;
11066;SDS011;29763;50.904;5.530;2022-10-01T15:32:14;8.48;;;2.38;;
11066;SDS011;29763;50.904;5.530;2022-10-01T15:34:47;4.45;;;2.10;;
11066;SDS011;29763;50.904;5.530;2022-10-01T15:37:22;8.30;;;2.60;;
11066;SDS011;29763;50.904;5.530;2022-10-01T15:39:52;10.25;;;2.50;;
11066;SDS011;29763;50.904;5.530;2022-10-01T15:47:46;6.18;;;2.17;;
11066;SDS011;29763;50.904;5.530;2022-10-01T15:50:24;6.43;;;2.60;;
11066;SDS011;29763;50.904;5.530;2022-10-01T15:55:33;7.13;;;2.65;;
11066;SDS011;29763;50.904;5.530;2022-10-01T15:58:07;7.28;;;2.67;;
11066;SDS011;29763;50.904;5.530;2022-10-01T16:03:35;7.40;;;2.63;;
11066;SDS011;29763;50.904;5.530;2022-10-01T16:06:05;7.75;;;2.70;;
11066;SDS011;29763;50.904;5.530;2022-10-01T16:11:21;6.18;;;2.20;;
11066;SDS011;29763;50.904;5.530;2022-10-01T16:13:48;6.80;;;3.00;;
11066;SDS011;29763;50.904;5.530;2022-10-01T16:16:18;7.63;;;2.70;;
11066;SDS011;29763;50.904;5.530;2022-10-01T16:18:47;8.02;;;2.70;;
11066;SDS011;29763;50.904;5.530;2022-10-01T16:21:18;15.52;;;4.55;;
11066;SDS011;29763;50.904;5.530;2022-10-01T16:23:45;6.95;;;2.88;;
11066;SDS011;29763;50.904;5.530;2022-10-01T16:28:57;10.13;;;3.28;;
11066;SDS011;29763;50.904;5.530;2022-10-01T16:31:30;5.95;;;2.63;;
11066;SDS011;29763;50.904;5.530;2022-10-01T16:33:58;7.95;;;2.75;;
11066;SDS011;29763;50.904;5.530;2022-10-01T16:36:26;8.90;;;2.80;;
11066;SDS011;29763;50.904;5.530;2022-10-01T16:38:55;12.13;;;3.72;;
11066;SDS011;29763;50.904;5.530;2022-10-01T16:41:22;8.20;;;2.90;;
11066;SDS011;29763;50.904;5.530;2022-10-01T16:43:50;8.75;;;3.03;;
11066;SDS011;29763;50.904;5.530;2022-10-01T16:46:18;6.53;;;2.80;;
11066;SDS011;29763;50.904;5.530;2022-10-01T16:48:45;9.75;;;2.90;;
11066;SDS011;29763;50.904;5.530;2022-10-01T16:51:13;9.80;;;3.22;;
11066;SDS011;29763;50.904;5.530;2022-10-01T16:53:39;7.57;;;2.50;;
11066;SDS011;29763;50.904;5.530;2022-10-01T16:56:07;7.78;;;2.97;;
11066;SDS011;29763;50.904;5.530;2022-10-01T16:58:34;10.32;;;3.17;;
11066;SDS011;29763;50.904;5.530;2022-10-01T17:01:03;8.60;;;2.70;;
11066;SDS011;29763;50.904;5.530;2022-10-01T17:03:33;8.60;;;3.00;;
11066;SDS011;29763;50.904;5.530;2022-10-01T17:05:59;8.30;;;3.08;;
11066;SDS011;29763;50.904;5.530;2022-10-01T17:08:25;9.60;;;3.03;;
11066;SDS011;29763;50.904;5.530;2022-10-01T17:10:52;5.18;;;3.00;;
11066;SDS011;29763;50.904;5.530;2022-10-01T17:13:23;8.88;;;2.67;;
11066;SDS011;29763;50.904;5.530;2022-10-01T17:15:53;13.10;;;3.75;;
11066;SDS011;29763;50.904;5.530;2022-10-01T17:18:19;8.27;;;3.58;;
11066;SDS011;29763;50.904;5.530;2022-10-01T17:20:48;10.32;;;3.58;;
11066;SDS011;29763;50.904;5.530;2022-10-01T17:23:15;9.75;;;3.65;;
11066;SDS011;29763;50.904;5.530;2022-10-01T17:25:42;19.88;;;14.13;;
11066;SDS011;29763;50.904;5.530;2022-10-01T17:28:12;14.30;;;11.40;;
11066;SDS011;29763;50.904;5.530;2022-10-01T17:30:40;10.90;;;7.40;;
11066;SDS011;29763;50.904;5.530;2022-10-01T17:33:08;10.60;;;6.20;;
11066;SDS011;29763;50.904;5.530;2022-10-01T17:35:39;15.82;;;7.32;;
11066;SDS011;29763;50.904;5.530;2022-10-01T17:38:06;20.63;;;9.23;;
11066;SDS011;29763;50.904;5.530;2022-10-01T17:40:32;28.10;;;14.23;;
11066;SDS011;29763;50.904;5.530;2022-10-01T17:42:58;25.45;;;14.07;;
11066;SDS011;29763;50.904;5.530;2022-10-01T17:45:24;24.58;;;15.77;;
11066;SDS011;29763;50.904;5.530;2022-10-01T17:47:52;21.23;;;13.23;;
11066;SDS011;29763;50.904;5.530;2022-10-01T17:50:20;23.73;;;9.77;;
11066;SDS011;29763;50.904;5.530;2022-10-01T17:52:46;17.45;;;8.18;;
11066;SDS011;29763;50.904;5.530;2022-10-01T17:55:12;19.58;;;8.48;;
11066;SDS011;29763;50.904;5.530;2022-10-01T17:57:41;16.65;;;8.50;;
11066;SDS011;29763;50.904;5.530;2022-10-01T18:00:07;19.73;;;9.77;;
11066;SDS011;29763;50.904;5.530;2022-10-01T18:02:33;19.38;;;9.00;;
11066;SDS011;29763;50.904;5.530;2022-10-01T18:04:59;15.48;;;8.00;;